Time;durP1;ratioP1;P1;durP2;ratioP2;P2;SDS_P1;SDS_P2;PMS_P1;PMS_P2;Temp;Humidity;BMP_temperature;BMP_pressure;BME280_temperature;BME280_humidity;BME280_pressure;Samples;Min_cycle;Max_cycle;Signal;HPM_P1;HPM_P2
2022/01/14 16:28:00;;;;;;;27.23;14.60;;;1.70;99.90;;;;;;5111983;27;20593;-75
2022/01/14 16:30:26;;;;;;;30.77;15.90;;;1.50;99.90;;;;;;5109848;28;20200;-75
2022/01/14 16:32:52;;;;;;;46.37;16.70;;;1.50;99.90;;;;;;5111408;28;20206;-75
2022/01/14 16:35:18;;;;;;;35.47;16.30;;;1.50;99.90;;;;;;5110604;28;20184;-75
2022/01/14 16:37:46;;;;;;;39.13;15.60;;;1.40;99.90;;;;;;5111406;28;20207;-75
2022/01/14 16:40:13;;;;;;;29.47;16.30;;;1.40;99.90;;;;;;5110924;28;20196;-75
2022/01/14 16:42:39;;;;;;;27.73;15.40;;;1.50;99.90;;;;;;5109761;28;20172;-75
2022/01/14 16:45:07;;;;;;;26.07;15.07;;;1.50;99.90;;;;;;5111031;28;20209;-75
2022/01/14 16:47:33;;;;;;;29.37;16.27;;;1.50;99.90;;;;;;5109589;28;20311;-75
2022/01/14 16:50:02;;;;;;;28.00;16.73;;;1.50;99.90;;;;;;5109673;28;20290;-74
2022/01/14 16:52:27;;;;;;;28.27;17.30;;;1.60;99.90;;;;;;5109573;28;20221;-74
2022/01/14 16:54:53;;;;;;;30.10;16.47;;;1.80;99.90;;;;;;5109971;28;20267;-74
2022/01/14 16:57:19;;;;;;;31.83;16.17;;;1.80;99.90;;;;;;5109539;28;20176;-74
2022/01/14 16:59:46;;;;;;;27.33;15.80;;;1.80;99.90;;;;;;5109419;28;20196;-74
2022/01/14 17:02:11;;;;;;;28.80;16.70;;;1.80;99.90;;;;;;5109466;28;20183;-74
2022/01/14 17:04:51;;;;;;;34.00;16.17;;;1.80;99.90;;;;;;5110213;28;20176;-74
2022/01/14 17:07:20;;;;;;;27.83;15.97;;;1.80;99.90;;;;;;5110032;28;20283;-74
2022/01/14 17:09:48;;;;;;;32.93;16.20;;;1.80;99.90;;;;;;5109199;28;20200;-74
2022/01/14 17:12:15;;;;;;;29.73;16.00;;;1.80;99.90;;;;;;5109435;28;20169;-75
2022/01/14 17:18:16;;;;;;;34.17;16.47;;;1.60;99.90;;;;;;5110385;28;20164;-75
2022/01/14 17:20:42;;;;;;;38.13;18.17;;;1.60;99.90;;;;;;5109368;28;20212;-75
2022/01/14 17:23:09;;;;;;;35.83;17.73;;;1.50;99.90;;;;;;5110278;28;20249;-75
2022/01/14 17:25:36;;;;;;;48.33;18.40;;;1.50;99.90;;;;;;5110243;28;20171;-75
2022/01/14 17:28:42;;;;;;;31.23;17.87;;;1.50;99.90;;;;;;5109976;28;20171;-75
2022/01/14 17:31:09;;;;;;;38.50;18.53;;;1.50;99.90;;;;;;5109690;28;20227;-75
2022/01/14 17:33:36;;;;;;;29.30;16.93;;;1.50;99.90;;;;;;5108679;28;20168;-75
2022/01/14 17:36:03;;;;;;;30.03;17.90;;;1.60;99.90;;;;;;5108988;28;20187;-76
2022/01/14 17:38:28;;;;;;;34.40;17.10;;;1.70;99.90;;;;;;5100235;28;20211;-76
2022/01/14 17:41:02;;;;;;;31.17;18.30;;;1.80;99.90;;;;;;5095261;28;20189;-76
2022/01/14 17:43:30;;;;;;;31.10;17.23;;;1.90;99.90;;;;;;5095152;28;20700;-76
2022/01/14 17:45:57;;;;;;;36.10;21.83;;;2.00;99.90;;;;;;5095255;28;20205;-76
2022/01/14 17:48:23;;;;;;;39.97;23.73;;;1.90;99.90;;;;;;5094903;28;20184;-76
2022/01/14 17:50:50;;;;;;;34.17;21.13;;;2.00;99.90;;;;;;5094787;28;20192;-76
2022/01/14 17:53:18;;;;;;;103.27;68.33;;;2.00;99.90;;;;;;5094792;28;20177;-76
2022/01/14 17:55:44;;;;;;;71.10;45.17;;;2.00;99.90;;;;;;5094876;28;20628;-76
2022/01/14 17:58:26;;;;;;;41.00;25.17;;;1.90;99.90;;;;;;5095282;28;20177;-76
2022/01/14 18:00:53;;;;;;;43.33;25.67;;;1.80;99.90;;;;;;5096537;28;20201;-77
2022/01/14 18:03:19;;;;;;;53.90;31.33;;;1.90;99.90;;;;;;5094678;28;20640;-77
2022/01/14 18:05:45;;;;;;;54.27;34.40;;;1.80;99.90;;;;;;5095462;28;20169;-77
2022/01/14 18:08:11;;;;;;;44.80;27.33;;;1.70;99.90;;;;;;5094648;28;20297;-76
2022/01/14 18:10:49;;;;;;;39.10;22.90;;;1.60;99.90;;;;;;5094475;28;20204;-76
2022/01/14 18:13:24;;;;;;;45.23;28.33;;;1.70;99.90;;;;;;5095881;28;20157;-76
2022/01/14 18:15:51;;;;;;;46.33;24.60;;;1.70;99.90;;;;;;5094474;28;20199;-76
2022/01/14 18:18:31;;;;;;;45.00;25.13;;;1.60;99.90;;;;;;5094793;28;20184;-77
2022/01/14 18:21:20;;;;;;;47.53;23.80;;;1.80;99.90;;;;;;5094235;28;20200;-76
2022/01/14 18:23:47;;;;;;;40.40;24.03;;;1.70;99.90;;;;;;5095528;28;20157;-76
2022/01/14 18:26:12;;;;;;;43.07;25.87;;;1.70;99.90;;;;;;5095480;28;20192;-76
2022/01/14 18:28:38;;;;;;;63.40;24.67;;;1.70;99.90;;;;;;5095493;28;20162;-76
2022/01/14 18:31:07;;;;;;;33.67;17.23;;;1.80;99.90;;;;;;5095249;28;20200;-76
2022/01/14 18:33:33;;;;;;;34.27;18.63;;;1.80;99.90;;;;;;5094114;28;20246;-77
2022/01/14 18:35:58;;;;;;;49.20;17.60;;;1.70;99.90;;;;;;5093987;28;20627;-77
2022/01/14 18:38:25;;;;;;;39.00;17.50;;;1.60;99.90;;;;;;5077351;28;20177;-77
2022/01/14 18:40:52;;;;;;;35.03;16.73;;;1.50;99.90;;;;;;5095420;28;20220;-77
2022/01/14 18:43:19;;;;;;;55.77;17.23;;;1.40;99.90;;;;;;5093981;28;20546;-77
2022/01/14 18:45:50;;;;;;;40.77;17.17;;;1.40;99.90;;;;;;5093883;28;20204;-77
2022/01/14 18:48:21;;;;;;;40.13;17.13;;;1.40;99.90;;;;;;5093965;28;20218;-77
2022/01/14 18:50:48;;;;;;;39.57;16.47;;;1.30;99.90;;;;;;5092941;28;20195;-77
2022/01/14 18:53:13;;;;;;;40.73;17.23;;;1.30;99.90;;;;;;5093711;28;20180;-77
2022/01/14 18:56:19;;;;;;;37.60;17.83;;;1.30;99.90;;;;;;5094871;28;20177;-77
2022/01/14 18:58:46;;;;;;;40.40;18.63;;;1.40;99.90;;;;;;5095129;28;20187;-77
2022/01/14 19:01:13;;;;;;;37.10;18.80;;;1.50;99.90;;;;;;5093770;28;20193;-77
2022/01/14 19:03:39;;;;;;;36.83;18.43;;;1.50;99.90;;;;;;5094839;28;20166;-77
2022/01/14 19:06:04;;;;;;;39.40;18.53;;;1.60;99.90;;;;;;5094710;28;20177;-77
2022/01/14 19:08:53;;;;;;;39.57;20.13;;;1.70;99.90;;;;;;5093695;28;20191;-77
2022/01/14 19:11:19;;;;;;;54.20;18.83;;;1.70;99.90;;;;;;5093279;28;20200;-76
2022/01/14 19:14:04;;;;;;;50.80;25.27;;;1.70;99.90;;;;;;5094593;28;20227;-77
2022/01/14 19:16:34;;;;;;;50.80;22.47;;;1.70;99.90;;;;;;5094263;28;20204;-77
2022/01/14 19:19:00;;;;;;;48.47;24.73;;;1.60;99.90;;;;;;5093233;28;20203;-77
2022/01/14 19:21:26;;;;;;;49.00;23.00;;;1.60;99.90;;;;;;5094312;28;20185;-77
2022/01/14 19:23:52;;;;;;;62.40;25.57;;;1.60;99.90;;;;;;5094378;28;20169;-77
2022/01/14 19:26:18;;;;;;;49.00;24.10;;;1.60;99.90;;;;;;5075955;28;20207;-77
2022/01/14 19:28:45;;;;;;;57.53;23.03;;;1.60;99.90;;;;;;5093120;28;20169;-77
2022/01/14 19:31:37;;;;;;;67.67;24.60;;;1.50;99.90;;;;;;5092946;28;20257;-78
2022/01/14 19:34:03;;;;;;;50.87;22.40;;;1.50;99.90;;;;;;5093732;28;20179;-77
2022/01/14 19:36:30;;;;;;;51.90;23.40;;;1.40;99.90;;;;;;5092467;28;20291;-77
2022/01/14 19:38:56;;;;;;;41.67;21.30;;;1.30;99.90;;;;;;5092845;28;20176;-77
2022/01/14 19:41:22;;;;;;;48.30;23.37;;;1.40;99.90;;;;;;5092815;28;20203;-77
2022/01/14 19:43:48;;;;;;;49.73;24.10;;;1.40;99.90;;;;;;5094279;28;20191;-77
2022/01/14 19:49:36;;;;;;;53.00;22.20;;;1.70;99.90;;;;;;5093883;28;20199;-76
2022/01/14 19:52:04;;;;;;;43.47;22.97;;;1.60;99.90;;;;;;5092729;28;20240;-76
2022/01/14 19:54:30;;;;;;;50.63;22.60;;;1.50;99.90;;;;;;5092642;28;20207;-76
2022/01/14 20:00:33;;;;;;;59.57;23.67;;;1.40;99.90;;;;;;5093685;28;20200;-76
2022/01/14 20:02:59;;;;;;;47.77;22.03;;;1.30;99.90;;;;;;5094333;28;20175;-76
2022/01/14 20:05:30;;;;;;;51.00;21.97;;;1.30;99.90;;;;;;5075765;28;20161;-76
2022/01/14 20:08:04;;;;;;;55.60;23.93;;;1.30;99.90;;;;;;5093755;28;20157;-77
2022/01/14 20:10:40;;;;;;;48.07;22.73;;;1.30;99.90;;;;;;5092353;28;20764;-76
2022/01/14 20:13:06;;;;;;;54.70;22.27;;;1.20;99.90;;;;;;5092322;28;20654;-76
2022/01/14 20:15:32;;;;;;;56.87;21.27;;;1.20;99.90;;;;;;5092615;28;20177;-76
2022/01/14 20:17:57;;;;;;;71.50;23.00;;;1.10;99.90;;;;;;5092166;28;20212;-76
2022/01/14 20:20:23;;;;;;;57.13;23.10;;;1.10;99.90;;;;;;5093073;28;20196;-76
2022/01/14 20:22:49;;;;;;;52.17;22.60;;;1.10;99.90;;;;;;5092882;28;20184;-76
2022/01/14 20:25:49;;;;;;;74.37;25.63;;;1.10;99.90;;;;;;5092242;28;20173;-77
2022/01/14 20:28:17;;;;;;;83.97;23.03;;;1.20;99.90;;;;;;5093003;28;20189;-75
2022/01/14 20:30:44;;;;;;;55.63;24.70;;;1.10;99.90;;;;;;5093665;28;20189;-75
2022/01/14 20:33:16;;;;;;;69.27;30.77;;;1.20;99.90;;;;;;5092908;28;20177;-76
2022/01/14 20:39:10;;;;;;;58.33;23.60;;;1.30;99.90;;;;;;5093382;28;20172;-76
2022/01/14 20:41:54;;;;;;;52.00;19.80;;;1.40;99.90;;;;;;5092048;28;20204;-76
2022/01/14 20:47:48;;;;;;;50.70;19.87;;;1.50;99.90;;;;;;5093459;28;20255;-76
2022/01/14 20:50:57;;;;;;;54.10;21.57;;;1.40;99.90;;;;;;5092761;28;20200;-76
2022/01/14 20:53:33;;;;;;;45.53;19.37;;;1.40;99.90;;;;;;5091995;28;20177;-76
2022/01/14 20:56:12;;;;;;;41.00;19.30;;;1.50;99.90;;;;;;5092555;28;20217;-76
2022/01/14 20:58:42;;;;;;;60.17;21.77;;;1.60;99.90;;;;;;5092223;28;20265;-77
2022/01/14 21:07:56;;;;;;;47.80;20.90;;;1.60;99.90;;;;;;5093268;28;20183;-76
2022/01/14 21:10:39;;;;;;;55.20;22.33;;;1.70;99.90;;;;;;5092374;28;20216;-76
2022/01/14 21:13:42;;;;;;;49.40;22.73;;;1.80;99.90;;;;;;5093632;28;20180;-76
2022/01/14 21:16:37;;;;;;;51.87;21.23;;;1.80;99.90;;;;;;5095641;28;20200;-76
2022/01/14 21:19:03;;;;;;;51.87;20.60;;;1.90;99.90;;;;;;5096505;28;20165;-76
2022/01/14 21:21:29;;;;;;;47.70;21.30;;;1.80;99.90;;;;;;5096427;28;20243;-76
2022/01/14 21:24:00;;;;;;;51.50;22.20;;;1.80;99.90;;;;;;5096067;28;20172;-76
2022/01/14 21:26:25;;;;;;;50.67;23.20;;;1.80;99.90;;;;;;5096026;28;20188;-76
2022/01/14 21:28:59;;;;;;;51.37;21.37;;;1.80;99.90;;;;;;5095391;28;20168;-76
2022/01/14 21:31:45;;;;;;;51.87;22.90;;;1.90;99.90;;;;;;5095269;28;20199;-76
2022/01/14 21:34:44;;;;;;;45.40;22.17;;;1.90;99.90;;;;;;5095429;28;20171;-76
2022/01/14 21:37:16;;;;;;;48.27;22.50;;;2.00;99.90;;;;;;5095178;28;20258;-76
2022/01/14 21:39:48;;;;;;;51.60;23.00;;;2.00;99.90;;;;;;5095439;28;20205;-76
2022/01/14 21:45:34;;;;;;;45.43;21.10;;;2.10;99.90;;;;;;5096651;28;20206;-77
2022/01/14 21:48:03;;;;;;;41.63;19.57;;;2.10;99.90;;;;;;5096348;28;20162;-77
2022/01/14 21:50:53;;;;;;;42.57;21.03;;;2.10;99.90;;;;;;5094932;28;20205;-77
2022/01/14 21:53:36;;;;;;;50.40;21.27;;;2.20;99.90;;;;;;5096633;28;20179;-78
2022/01/14 21:56:05;;;;;;;49.10;21.17;;;2.20;99.90;;;;;;5095765;28;20177;-77
2022/01/14 21:58:51;;;;;;;45.60;20.10;;;2.10;99.90;;;;;;5096414;28;20161;-77
2022/01/14 22:01:23;;;;;;;48.80;21.27;;;2.20;99.90;;;;;;5094719;28;20239;-76
2022/01/14 22:03:59;;;;;;;68.97;20.63;;;2.20;99.90;;;;;;5096044;28;20244;-76
2022/01/14 22:06:29;;;;;;;50.60;20.03;;;2.10;99.90;;;;;;5095098;28;20172;-76
2022/01/14 22:09:05;;;;;;;47.63;21.00;;;1.90;99.90;;;;;;5094780;28;20173;-76
2022/01/14 22:11:41;;;;;;;52.17;20.73;;;1.70;99.90;;;;;;5095866;28;20287;-77
2022/01/14 22:14:21;;;;;;;52.00;20.90;;;1.70;99.90;;;;;;5094753;28;20168;-77
2022/01/14 22:17:47;;;;;;;54.03;20.70;;;1.70;99.90;;;;;;5095964;28;20189;-77
2022/01/14 22:21:21;;;;;;;57.00;21.17;;;1.70;99.90;;;;;;5095861;28;20193;-76
2022/01/14 22:23:50;;;;;;;50.20;20.30;;;1.70;99.90;;;;;;5094331;28;20211;-75
2022/01/14 22:30:13;;;;;;;54.33;21.00;;;1.70;99.90;;;;;;5095843;28;20246;-77
2022/01/14 22:33:28;;;;;;;50.80;21.03;;;1.80;99.90;;;;;;5095880;28;20244;-77
2022/01/14 22:36:22;;;;;;;50.03;21.60;;;1.90;99.90;;;;;;5095638;28;20153;-77
2022/01/14 22:39:03;;;;;;;49.53;22.43;;;2.00;99.90;;;;;;5095551;28;20157;-77
2022/01/14 22:41:37;;;;;;;50.10;21.53;;;2.10;99.90;;;;;;5095170;28;20189;-76
2022/01/14 22:44:13;;;;;;;45.00;20.47;;;2.30;99.90;;;;;;5094042;28;20255;-76
2022/01/14 22:46:48;;;;;;;42.27;19.47;;;2.40;99.90;;;;;;5094028;28;20309;-76
2022/01/14 22:49:21;;;;;;;47.87;20.37;;;2.40;99.90;;;;;;5093883;28;20188;-76
2022/01/14 22:52:02;;;;;;;47.77;20.17;;;2.50;99.90;;;;;;5094705;28;20181;-76
2022/01/14 22:54:40;;;;;;;42.13;19.03;;;2.50;99.90;;;;;;5094694;28;20181;-76
2022/01/14 22:57:06;;;;;;;47.83;21.90;;;2.60;99.90;;;;;;5094942;28;20192;-76
2022/01/14 22:59:35;;;;;;;48.97;21.60;;;2.60;99.90;;;;;;5093908;28;20181;-77
2022/01/14 23:02:19;;;;;;;56.67;21.97;;;2.60;99.90;;;;;;5093630;28;20169;-77
2022/01/14 23:05:07;;;;;;;52.20;21.97;;;2.50;99.90;;;;;;5095059;28;20157;-76
2022/01/14 23:07:39;;;;;;;39.57;18.67;;;2.60;99.90;;;;;;5094699;28;20183;-76
2022/01/14 23:10:06;;;;;;;37.97;18.93;;;2.60;99.90;;;;;;5094887;28;20251;-76
2022/01/14 23:12:32;;;;;;;42.10;19.93;;;2.50;99.90;;;;;;5093390;28;20181;-76
2022/01/14 23:15:00;;;;;;;44.90;22.80;;;2.50;99.90;;;;;;5093701;28;20180;-77
2022/01/14 23:17:26;;;;;;;44.43;23.50;;;2.50;99.90;;;;;;5093257;28;20197;-77
2022/01/14 23:20:27;;;;;;;47.23;22.50;;;2.60;99.90;;;;;;5093306;28;20197;-77
2022/01/14 23:22:53;;;;;;;40.97;21.00;;;2.60;99.90;;;;;;5093343;28;20165;-76
2022/01/14 23:25:19;;;;;;;46.87;24.20;;;2.40;99.90;;;;;;5094745;28;20183;-76
2022/01/14 23:27:45;;;;;;;41.17;19.67;;;2.40;99.90;;;;;;5092939;28;20275;-76
2022/01/14 23:30:13;;;;;;;38.00;18.97;;;2.60;99.90;;;;;;5093911;28;20331;-76
2022/01/14 23:32:39;;;;;;;32.73;17.00;;;2.60;99.90;;;;;;5093257;28;20179;-76
2022/01/14 23:35:06;;;;;;;36.00;18.03;;;2.50;99.90;;;;;;5092996;28;20271;-76
2022/01/14 23:37:31;;;;;;;32.80;16.33;;;2.40;99.90;;;;;;5092745;28;20196;-76
2022/01/14 23:39:57;;;;;;;30.00;16.60;;;2.50;99.90;;;;;;5093189;28;20204;-76
2022/01/14 23:42:23;;;;;;;35.10;19.10;;;2.60;99.90;;;;;;5092857;28;20206;-76
2022/01/14 23:45:11;;;;;;;37.03;20.90;;;2.70;99.90;;;;;;5093676;28;20177;-76
2022/01/14 23:47:37;;;;;;;34.67;17.00;;;2.70;99.90;;;;;;5093237;28;20198;-76
2022/01/14 23:50:19;;;;;;;33.30;17.70;;;2.80;99.90;;;;;;5092586;28;20288;-76
2022/01/14 23:52:45;;;;;;;29.40;16.43;;;2.70;99.90;;;;;;5092749;28;20179;-76
2022/01/14 23:55:19;;;;;;;28.80;16.20;;;2.80;99.90;;;;;;5093342;28;20188;-76
2022/01/14 23:57:54;;;;;;;35.27;17.60;;;2.80;99.90;;;;;;5093842;28;20381;-76
